Strona główna
METAR-TAF:

METAR-TAF

Lotnisko :

Port lotniczy Ostrawa

Ostrawa, Czechy

Szerokość geograficzna: 49-41N, Długość geograficzna: 018-07E, wysokość: 256 m

Aktualna obserwacja pogody

Raport powstał 19 minut temu, godzina 13:41 UTC
Wiatr 4 kt od północno-północny wschód, zmienny między północno-północny zachód i wschodnio-północny wschód
Temperatura 13°C
Wilgotność 44%
Ciśnienie 1033 hPa
Widzialność 10 km lub więcej
Brak chmur poniżej 1500 m i brak chmur cumulonimbus

METAR: LKMT 211341Z 03004KT 340V060 CAVOK 13/01 Q1033 RMK REG QNH 1031

czas: 15:00 (14:00 UTC)

Prognoza

Raport powstał 3 godziny i 0 minut temu, godzina 11:00 UTC
Prognoza ważna od 21 godzina 12 UTC do 22 godzina 18 UTC
Wiatr 6 kt od południowy zachód
Widzialność 10 km lub więcej
Brak chmur poniżej 1500 m i brak chmur cumulonimbus
Stopniowe zmiany
od 22 godzina 09 UTC do 22 godzina 11 UTC
Wiatr 6 kt od północno-północny wschód

TAF: LKMT 211100Z 2112/2218 22006KT CAVOK BECMG 2209/2211 03006KT

Obserwacja i prognoza pogody dla ponad 4000 lotnisk (raport METAR i TAF).

Dostępne stacje oznaczono żółtymi i czerwonymi punktami na mapie.

Najedź kursorem aby zobaczyć nazwę stacji.

Kliknij aby zobaczyć obserwacje i prognozy pogody.

Aby zmienić mapę: kliknij na zielony przycisk z czarnym krzyżykiem, aby powiększyć; na zielony przycisk z myślnikiem, aby pomniejszyć; na zielone strzałki, aby przejść do map sąsiednich.


METAR-TAF: